Time;durP1;ratioP1;P1;durP2;ratioP2;P2;SDS_P1;SDS_P2;PMS_P1;PMS_P2;Temp;Humidity;BMP_temperature;BMP_pressure;BME280_temperature;BME280_humidity;BME280_pressure;Samples;Min_cycle;Max_cycle;Signal;HPM_P1;HPM_P2
2021/04/15 00:00:42;;;;;;;6.13;1.48;;;1.70;99.90;;;;;;5049394;28;20116;-56
2021/04/15 00:03:11;;;;;;;5.55;1.50;;;1.70;99.90;;;;;;5050478;28;20044;-51
2021/04/15 00:05:37;;;;;;;3.00;1.30;;;1.70;99.90;;;;;;5049942;28;20391;-54
2021/04/15 00:08:06;;;;;;;4.95;1.10;;;1.70;99.90;;;;;;5050343;28;20056;-58
2021/04/15 00:10:38;;;;;;;6.80;1.35;;;1.70;99.90;;;;;;5048883;28;20110;-55
2021/04/15 00:13:12;;;;;;;1.95;1.17;;;1.70;99.90;;;;;;5049940;28;20060;-53
2021/04/15 00:15:38;;;;;;;13.02;2.85;;;1.70;99.90;;;;;;5050191;28;20292;-55
2021/04/15 00:18:04;;;;;;;4.30;1.35;;;1.70;99.90;;;;;;5049729;28;20040;-56
2021/04/15 00:20:29;;;;;;;3.58;1.65;;;1.70;99.90;;;;;;5049786;28;20483;-55
2021/04/15 00:22:57;;;;;;;4.47;1.35;;;1.60;99.90;;;;;;5050181;28;20040;-57
2021/04/15 00:25:23;;;;;;;4.75;1.40;;;1.60;99.90;;;;;;5049194;28;20049;-56
2021/04/15 00:27:49;;;;;;;3.92;1.33;;;1.50;99.90;;;;;;5050327;28;20624;-53
2021/04/15 00:30:16;;;;;;;4.80;1.52;;;1.50;99.90;;;;;;5048645;28;20108;-54
2021/04/15 00:32:42;;;;;;;5.43;1.83;;;1.40;99.90;;;;;;5053506;28;20032;-53
2021/04/15 00:35:08;;;;;;;4.15;1.80;;;1.30;99.90;;;;;;5053378;28;20037;-53
2021/04/15 00:37:34;;;;;;;4.28;1.98;;;1.30;99.90;;;;;;5052272;28;20029;-55
2021/04/15 00:40:00;;;;;;;4.65;1.90;;;1.40;99.90;;;;;;5052324;28;20513;-51
2021/04/15 00:42:25;;;;;;;2.83;1.60;;;1.40;99.90;;;;;;5053549;28;20087;-54
2021/04/15 00:44:54;;;;;;;3.63;1.80;;;1.40;99.90;;;;;;5052408;28;20025;-57
2021/04/15 00:47:28;;;;;;;3.92;2.10;;;1.40;99.90;;;;;;5053140;28;20032;-56
2021/04/15 00:50:01;;;;;;;6.78;2.00;;;1.40;99.90;;;;;;5053661;28;20055;-57
2021/04/15 00:52:33;;;;;;;4.70;1.50;;;1.40;99.90;;;;;;5042285;28;20032;-55
2021/04/15 00:55:06;;;;;;;3.95;1.65;;;1.50;99.90;;;;;;5053100;28;20033;-56
2021/04/15 00:57:38;;;;;;;8.00;1.65;;;1.40;99.90;;;;;;5049261;28;20128;-56
2021/04/15 01:00:07;;;;;;;5.28;1.83;;;1.40;99.90;;;;;;5052754;28;20095;-54
2021/04/15 01:02:34;;;;;;;2.75;1.70;;;1.40;99.90;;;;;;5052865;28;20051;-55
2021/04/15 01:05:10;;;;;;;4.43;1.77;;;1.30;99.90;;;;;;5053036;28;20083;-54
2021/04/15 01:07:36;;;;;;;6.25;2.60;;;1.30;99.90;;;;;;5052560;28;20110;-55
2021/04/15 01:10:03;;;;;;;6.85;2.35;;;1.30;99.90;;;;;;5052922;28;20037;-55
2021/04/15 01:12:32;;;;;;;5.60;2.25;;;1.30;99.90;;;;;;5052840;28;20064;-56
2021/04/15 01:15:35;;;;;;;4.80;2.20;;;1.20;99.90;;;;;;5046441;28;20131;-55
2021/04/15 01:18:07;;;;;;;4.80;2.50;;;1.20;99.90;;;;;;5052800;28;20040;-56
2021/04/15 01:20:49;;;;;;;7.10;2.97;;;1.20;99.90;;;;;;5052635;28;20025;-54
2021/04/15 01:23:46;;;;;;;4.30;2.90;;;1.20;99.90;;;;;;5051278;28;20040;-56
2021/04/15 01:26:20;;;;;;;5.05;2.30;;;1.10;99.90;;;;;;5047483;28;20577;-57
2021/04/15 01:29:04;;;;;;;6.32;2.70;;;1.10;99.90;;;;;;5052390;28;20045;-55
2021/04/15 01:31:54;;;;;;;4.60;2.38;;;1.00;99.90;;;;;;5052619;28;20045;-57
2021/04/15 01:34:43;;;;;;;5.72;2.33;;;1.00;99.90;;;;;;5052830;28;20219;-55
2021/04/15 01:37:22;;;;;;;5.38;2.50;;;1.10;99.90;;;;;;5041133;28;20475;-55
2021/04/15 01:39:53;;;;;;;6.00;2.30;;;1.10;99.90;;;;;;5052137;28;20033;-52
2021/04/15 01:42:54;;;;;;;16.80;3.10;;;1.10;99.90;;;;;;5051796;28;20064;-54
2021/04/15 01:45:20;;;;;;;26.13;4.40;;;1.20;99.90;;;;;;5052206;28;20752;-56
2021/04/15 01:47:57;;;;;;;13.07;2.60;;;1.20;99.90;;;;;;5052220;28;20017;-53
2021/04/15 01:50:36;;;;;;;5.00;2.25;;;1.20;99.90;;;;;;5052155;28;20435;-55
2021/04/15 01:53:07;;;;;;;3.92;2.08;;;1.20;99.90;;;;;;5051800;28;20088;-58
2021/04/15 01:55:41;;;;;;;8.32;2.00;;;1.20;99.90;;;;;;5051709;28;20028;-56
2021/04/15 01:58:21;;;;;;;5.70;2.20;;;1.10;99.90;;;;;;5052465;28;20060;-57
2021/04/15 02:00:50;;;;;;;4.43;2.22;;;1.10;99.90;;;;;;5051887;28;20390;-55
2021/04/15 02:03:25;;;;;;;6.28;2.00;;;1.10;99.90;;;;;;5052033;28;20033;-56
2021/04/15 02:05:58;;;;;;;5.47;2.13;;;1.10;99.90;;;;;;5051266;28;20441;-57
2021/04/15 02:08:32;;;;;;;11.63;2.40;;;1.00;99.90;;;;;;5050504;28;20025;-53
2021/04/15 02:11:10;;;;;;;7.10;2.28;;;1.00;99.90;;;;;;5051666;28;20463;-54
2021/04/15 02:13:42;;;;;;;4.97;2.03;;;1.00;99.90;;;;;;5058051;28;20426;-55
2021/04/15 02:16:13;;;;;;;6.20;2.00;;;1.00;99.90;;;;;;5051142;28;20459;-55
2021/04/15 02:18:43;;;;;;;6.07;2.30;;;0.90;99.90;;;;;;5051629;28;20025;-56
2021/04/15 02:21:31;;;;;;;4.43;1.70;;;0.90;99.90;;;;;;5051550;28;20471;-55
2021/04/15 02:24:15;;;;;;;5.57;2.08;;;0.90;99.90;;;;;;5050069;28;20136;-51
2021/04/15 02:26:41;;;;;;;4.97;1.85;;;0.80;99.90;;;;;;5050790;28;20094;-53
2021/04/15 02:29:17;;;;;;;3.20;1.90;;;0.80;99.90;;;;;;5051464;28;20021;-54
2021/04/15 02:31:51;;;;;;;9.50;2.15;;;0.80;99.90;;;;;;5050007;28;20589;-57
2021/04/15 02:34:37;;;;;;;10.27;2.20;;;0.80;99.90;;;;;;5051591;28;20033;-55
2021/04/15 02:37:31;;;;;;;11.95;2.45;;;0.70;99.90;;;;;;5046970;28;20052;-55
2021/04/15 02:40:04;;;;;;;8.00;2.47;;;0.80;99.90;;;;;;5050387;28;20078;-56
2021/04/15 02:42:36;;;;;;;6.25;2.42;;;0.70;99.90;;;;;;5051284;28;20075;-57
2021/04/15 02:45:22;;;;;;;7.05;1.83;;;0.70;99.90;;;;;;5050570;28;20040;-53
2021/04/15 02:47:52;;;;;;;8.75;2.03;;;0.70;99.90;;;;;;5050444;28;20045;-52
2021/04/15 02:50:21;;;;;;;10.82;2.20;;;0.70;99.90;;;;;;5050640;28;20021;-54
2021/04/15 02:52:57;;;;;;;9.18;2.35;;;0.70;99.90;;;;;;5050534;28;20041;-55
2021/04/15 02:55:26;;;;;;;5.10;2.03;;;0.60;99.90;;;;;;5050293;28;20885;-59
2021/04/15 02:58:05;;;;;;;6.90;2.17;;;0.60;99.90;;;;;;5050357;28;20487;-56
2021/04/15 03:00:37;;;;;;;5.68;2.47;;;0.60;99.90;;;;;;5049511;28;20021;-54
2021/04/15 03:03:05;;;;;;;8.52;2.20;;;0.50;99.90;;;;;;5050249;28;20029;-56
2021/04/15 03:05:38;;;;;;;11.50;2.35;;;0.40;99.90;;;;;;5049279;28;20114;-53
2021/04/15 03:08:04;;;;;;;7.28;2.42;;;0.40;99.90;;;;;;5049771;28;20037;-56
2021/04/15 03:10:34;;;;;;;8.05;2.30;;;0.40;99.90;;;;;;5049590;28;20059;-52
2021/04/15 03:13:13;;;;;;;5.30;2.10;;;0.40;99.90;;;;;;5049026;28;20086;-56
2021/04/15 03:15:44;;;;;;;7.10;2.08;;;0.40;99.90;;;;;;5051149;28;20064;-53
2021/04/15 03:18:18;;;;;;;8.27;2.47;;;0.40;99.90;;;;;;5050280;28;20025;-54
2021/04/15 03:21:03;;;;;;;70.13;7.35;;;0.40;99.90;;;;;;5050313;28;20024;-56
2021/04/15 03:23:31;;;;;;;9.00;2.42;;;0.30;99.90;;;;;;5046061;28;20084;-56
2021/04/15 03:26:04;;;;;;;9.02;2.40;;;0.30;99.90;;;;;;5050749;28;20392;-54
2021/04/15 03:28:47;;;;;;;7.30;2.35;;;0.20;99.90;;;;;;5049184;28;20033;-54
2021/04/15 03:31:19;;;;;;;4.25;1.80;;;0.20;99.90;;;;;;5050915;28;20124;-55
2021/04/15 03:34:02;;;;;;;10.55;2.08;;;0.20;99.90;;;;;;5050639;28;20033;-57
2021/04/15 03:36:39;;;;;;;6.72;1.80;;;0.10;99.90;;;;;;5050527;28;20068;-56
2021/04/15 03:39:19;;;;;;;9.15;1.75;;;0.00;99.90;;;;;;5050454;28;20029;-52
2021/04/15 03:41:48;;;;;;;7.47;2.13;;;0.00;99.90;;;;;;5050117;28;20069;-53
2021/04/15 03:44:31;;;;;;;6.30;2.20;;;0.00;99.90;;;;;;5050110;28;20033;-56
2021/04/15 03:47:12;;;;;;;4.53;1.85;;;0.00;99.90;;;;;;5049705;28;20479;-53
2021/04/15 03:49:57;;;;;;;3.75;1.88;;;0.00;99.90;;;;;;5042851;28;20423;-54
2021/04/15 03:52:44;;;;;;;7.20;2.60;;;0.00;99.90;;;;;;5049696;28;20087;-54
2021/04/15 03:55:15;;;;;;;9.77;2.20;;;0.10;99.90;;;;;;5050725;28;20024;-53
2021/04/15 03:57:43;;;;;;;6.97;2.38;;;0.20;99.90;;;;;;5050006;28;20075;-53
2021/04/15 04:00:12;;;;;;;5.47;2.38;;;0.30;99.90;;;;;;5049692;28;20021;-55
2021/04/15 04:02:46;;;;;;;5.13;2.20;;;0.30;99.90;;;;;;5050106;28;20029;-56
2021/04/15 04:05:22;;;;;;;5.60;2.50;;;0.40;99.90;;;;;;5050047;28;20445;-55
2021/04/15 04:07:55;;;;;;;9.88;2.42;;;0.40;99.90;;;;;;5053637;28;20498;-56
2021/04/15 04:10:37;;;;;;;9.18;2.75;;;0.40;99.90;;;;;;5054028;28;20064;-52
2021/04/15 04:13:28;;;;;;;10.80;2.38;;;0.50;99.90;;;;;;5053715;28;20068;-52
2021/04/15 04:16:05;;;;;;;9.00;2.85;;;0.50;99.90;;;;;;5044506;28;20395;-54
2021/04/15 04:18:55;;;;;;;10.75;3.08;;;0.50;99.90;;;;;;5054050;28;20032;-54
2021/04/15 04:22:04;;;;;;;10.32;3.10;;;0.60;99.90;;;;;;5054236;28;20494;-55
2021/04/15 04:24:33;;;;;;;11.75;3.45;;;0.80;99.90;;;;;;5007903;28;20080;-56
2021/04/15 04:27:06;;;;;;;9.90;3.33;;;0.70;99.90;;;;;;5005817;28;20060;-56
2021/04/15 04:29:42;;;;;;;12.88;2.95;;;0.80;99.90;;;;;;5021163;28;20045;-57
2021/04/15 04:32:13;;;;;;;5.45;2.72;;;0.80;99.90;;;;;;5047384;28;20056;-55
2021/04/15 04:34:40;;;;;;;7.00;3.20;;;0.80;99.90;;;;;;5045860;28;20056;-57
2021/04/15 04:37:10;;;;;;;6.00;3.15;;;0.80;99.90;;;;;;5054267;28;20029;-53
2021/04/15 04:39:38;;;;;;;8.05;3.25;;;0.80;99.90;;;;;;5052492;28;20064;-54
2021/04/15 04:42:18;;;;;;;13.45;3.58;;;0.90;99.90;;;;;;5053247;28;20048;-55
2021/04/15 04:44:59;;;;;;;13.80;3.55;;;0.80;99.90;;;;;;5052641;28;20037;-57
2021/04/15 04:47:37;;;;;;;14.45;3.50;;;0.80;99.90;;;;;;5053270;28;20051;-53
2021/04/15 04:50:13;;;;;;;14.73;3.70;;;0.80;99.90;;;;;;5040644;28;20043;-56
2021/04/15 04:52:39;;;;;;;5.20;2.70;;;0.80;99.90;;;;;;5053006;28;20056;-57
2021/04/15 04:55:42;;;;;;;11.45;3.47;;;0.80;99.90;;;;;;5052194;28;20112;-55
2021/04/15 04:58:17;;;;;;;12.13;3.58;;;0.70;99.90;;;;;;5030359;28;20041;-51
2021/04/15 05:00:50;;;;;;;35.15;4.70;;;0.80;99.90;;;;;;5042776;28;20097;-56
2021/04/15 05:03:24;;;;;;;19.50;4.00;;;0.70;99.90;;;;;;5052620;28;20074;-57
2021/04/15 05:05:58;;;;;;;13.63;3.77;;;0.70;99.90;;;;;;5052715;28;20025;-56
2021/04/15 05:08:28;;;;;;;8.02;3.47;;;0.70;99.90;;;;;;5052557;28;20060;-55
2021/04/15 05:10:56;;;;;;;21.45;4.07;;;0.60;99.90;;;;;;5052413;28;20510;-55
2021/04/15 05:13:25;;;;;;;11.00;3.30;;;0.60;99.90;;;;;;5052722;28;20033;-55
2021/04/15 05:15:52;;;;;;;19.33;3.72;;;0.60;99.90;;;;;;5053193;28;20029;-55
2021/04/15 05:18:20;;;;;;;12.35;3.25;;;0.50;99.90;;;;;;5051299;28;20447;-56
2021/04/15 05:20:47;;;;;;;14.77;3.78;;;0.40;99.90;;;;;;5040427;28;20047;-55
2021/04/15 05:23:32;;;;;;;18.90;4.40;;;0.50;99.90;;;;;;5052843;28;20087;-52
2021/04/15 05:26:10;;;;;;;20.52;4.05;;;0.40;99.90;;;;;;5045987;28;20077;-57
2021/04/15 05:28:38;;;;;;;20.65;4.07;;;0.60;99.90;;;;;;5050967;28;20414;-56
2021/04/15 05:31:10;;;;;;;19.80;4.22;;;0.70;99.90;;;;;;5052159;28;20372;-56
2021/04/15 05:33:38;;;;;;;16.73;3.45;;;0.80;99.90;;;;;;5052379;28;20033;-55
2021/04/15 05:36:03;;;;;;;14.45;3.92;;;0.70;99.90;;;;;;5051594;28;20086;-55
2021/04/15 05:38:36;;;;;;;15.88;3.70;;;0.60;99.90;;;;;;5052245;28;20029;-54
2021/04/15 05:41:05;;;;;;;15.93;4.03;;;0.60;99.90;;;;;;5042429;28;20626;-57
2021/04/15 05:43:50;;;;;;;11.93;4.15;;;0.60;99.90;;;;;;5052233;28;20032;-53
2021/04/15 05:46:24;;;;;;;15.55;4.47;;;0.80;99.90;;;;;;5045029;28;20529;-55
2021/04/15 05:49:02;;;;;;;22.35;4.43;;;0.80;99.90;;;;;;5052132;28;20426;-55
2021/04/15 05:51:39;;;;;;;17.25;4.65;;;0.80;99.90;;;;;;5052325;28;20120;-56
2021/04/15 05:54:10;;;;;;;18.35;4.90;;;0.80;99.90;;;;;;5051601;28;20025;-58
2021/04/15 05:56:47;;;;;;;20.85;4.53;;;0.90;99.90;;;;;;5052057;28;20029;-55
2021/04/15 05:59:15;;;;;;;17.15;4.70;;;1.00;99.90;;;;;;5051422;28;20025;-56
2021/04/15 06:02:04;;;;;;;25.25;4.97;;;1.20;99.90;;;;;;5050133;28;20029;-56
2021/04/15 06:04:45;;;;;;;23.13;5.25;;;1.20;99.90;;;;;;5045362;28;20485;-53
2021/04/15 06:07:19;;;;;;;17.48;5.53;;;1.30;99.90;;;;;;5050731;28;20040;-54
2021/04/15 06:09:45;;;;;;;23.10;4.75;;;1.40;99.90;;;;;;5051399;28;20486;-55
2021/04/15 06:12:31;;;;;;;19.17;5.88;;;1.40;99.90;;;;;;5051652;28;20040;-54
2021/04/15 06:15:11;;;;;;;26.10;5.75;;;1.40;99.90;;;;;;5050033;28;20067;-53
2021/04/15 06:17:46;;;;;;;27.48;5.90;;;1.40;99.90;;;;;;5051422;28;20032;-54
2021/04/15 06:20:23;;;;;;;23.08;5.30;;;1.50;99.90;;;;;;5051611;28;20028;-55
2021/04/15 06:22:52;;;;;;;20.30;5.78;;;1.60;99.90;;;;;;5051465;28;20048;-57
2021/04/15 06:25:19;;;;;;;24.42;6.00;;;1.70;99.90;;;;;;5050957;28;20048;-58
2021/04/15 06:27:48;;;;;;;34.83;5.60;;;1.70;99.90;;;;;;5051255;28;20391;-56
2021/04/15 06:30:16;;;;;;;18.52;5.95;;;1.70;99.90;;;;;;5050205;28;20397;-53
2021/04/15 06:32:51;;;;;;;16.38;5.78;;;1.90;99.90;;;;;;5051379;28;20495;-55
2021/04/15 06:35:19;;;;;;;;;;;1.90;99.90;;;;;;5050799;28;20391;-57
2021/04/15 06:37:56;;;;;;;24.48;7.60;;;2.00;99.90;;;;;;5050238;28;19912;-55
2021/04/15 06:40:31;;;;;;;16.02;5.20;;;2.10;99.90;;;;;;5050152;28;20111;-55
2021/04/15 06:43:34;;;;;;;17.52;5.28;;;2.10;99.90;;;;;;5050741;28;20045;-54
2021/04/15 06:46:37;;;;;;;13.90;5.45;;;2.20;99.90;;;;;;5048952;28;20075;-59
2021/04/15 06:49:24;;;;;;;18.45;5.40;;;2.30;99.90;;;;;;5045379;28;20354;-58
2021/04/15 06:52:36;;;;;;;15.60;5.60;;;2.40;99.90;;;;;;5049680;28;20487;-55
2021/04/15 06:59:04;;;;;;;21.20;5.82;;;2.60;99.90;;;;;;5050862;28;20040;-57
2021/04/15 07:01:53;;;;;;;15.02;5.25;;;2.70;99.90;;;;;;5025489;28;20044;-56
2021/04/15 07:04:33;;;;;;;22.08;6.30;;;2.80;99.90;;;;;;5073449;28;20437;-56
2021/04/15 07:07:13;;;;;;;17.65;5.60;;;2.90;99.90;;;;;;5044791;28;20055;-56
2021/04/15 07:09:51;;;;;;;11.00;4.05;;;3.10;99.90;;;;;;5045325;28;20111;-57
2021/04/15 07:12:52;;;;;;;13.73;4.97;;;3.20;99.90;;;;;;5044548;28;20377;-56
2021/04/15 07:15:43;;;;;;;21.13;5.13;;;3.30;99.90;;;;;;5048735;28;20483;-56
2021/04/15 07:18:35;;;;;;;29.50;8.10;;;3.50;99.90;;;;;;5049650;28;20094;-53
2021/04/15 07:21:19;;;;;;;14.18;4.63;;;3.60;99.90;;;;;;5046016;28;20378;-58
2021/04/15 07:24:12;;;;;;;43.28;7.70;;;3.80;99.90;;;;;;5047448;28;20037;-56
2021/04/15 07:26:44;;;;;;;17.05;4.20;;;4.10;99.90;;;;;;5046048;28;20557;-59
2021/04/15 07:29:15;;;;;;;19.90;5.05;;;4.50;99.90;;;;;;5046305;28;20115;-58
2021/04/15 07:31:58;;;;;;;29.38;5.45;;;4.90;99.90;;;;;;5044719;28;20040;-55
2021/04/15 07:34:30;;;;;;;22.25;4.80;;;5.40;99.90;;;;;;5046597;28;20653;-58
2021/04/15 07:37:23;;;;;;;29.42;7.20;;;5.70;99.90;;;;;;5049836;28;20029;-55
2021/04/15 07:40:36;;;;;;;17.55;4.80;;;6.30;99.90;;;;;;5047837;28;20051;-54
2021/04/15 07:43:33;;;;;;;12.32;3.30;;;6.80;99.90;;;;;;5041535;28;20071;-55
2021/04/15 07:46:08;;;;;;;40.63;4.75;;;6.90;99.90;;;;;;5053660;28;20459;-57
2021/04/15 07:49:06;;;;;;;20.85;4.43;;;7.20;99.90;;;;;;5053559;28;20490;-54
2021/04/15 07:51:41;;;;;;;13.60;4.50;;;7.40;99.90;;;;;;5052908;28;20087;-58
2021/04/15 07:54:25;;;;;;;14.45;3.42;;;7.60;99.90;;;;;;5053387;28;20497;-57
2021/04/15 07:57:09;;;;;;;24.35;4.43;;;7.60;99.90;;;;;;5048205;28;20048;-55
2021/04/15 07:59:44;;;;;;;27.20;5.47;;;7.80;99.90;;;;;;5053131;28;20060;-57
2021/04/15 08:02:28;;;;;;;44.83;6.60;;;8.10;99.90;;;;;;5052590;28;20124;-54
2021/04/15 08:05:19;;;;;;;21.20;3.83;;;8.50;99.90;;;;;;5051780;28;20036;-57
2021/04/15 08:07:47;;;;;;;12.68;2.72;;;8.90;99.90;;;;;;5050267;28;20041;-57
2021/04/15 08:10:31;;;;;;;18.33;3.38;;;9.20;99.90;;;;;;5053733;28;20536;-55
2021/04/15 08:13:40;;;;;;;29.30;4.32;;;9.30;99.90;;;;;;5053382;28;20068;-56
2021/04/15 08:16:29;;;;;;;33.35;4.32;;;9.60;99.90;;;;;;5048521;28;20120;-56
2021/04/15 08:19:26;;;;;;;37.42;4.57;;;10.00;99.90;;;;;;5053431;28;20089;-57
2021/04/15 08:22:14;;;;;;;16.23;3.05;;;10.00;99.90;;;;;;5052326;28;20033;-54
2021/04/15 08:24:58;;;;;;;6.00;2.20;;;9.90;99.90;;;;;;5052622;28;20061;-56
2021/04/15 08:27:47;;;;;;;16.05;2.83;;;10.00;99.90;;;;;;5053527;28;20040;-53
2021/04/15 08:30:18;;;;;;;20.13;3.08;;;10.30;99.90;;;;;;5050756;28;20136;-58
2021/04/15 08:32:47;;;;;;;13.38;2.45;;;10.40;99.90;;;;;;5053341;28;20091;-58
2021/04/15 08:35:30;;;;;;;21.80;3.72;;;10.30;99.90;;;;;;5053769;28;20025;-58
2021/04/15 08:38:02;;;;;;;6.97;1.88;;;10.40;99.90;;;;;;5049790;28;20167;-56
2021/04/15 08:40:57;;;;;;;19.33;2.83;;;10.60;99.90;;;;;;5035370;28;20064;-57
2021/04/15 08:43:57;;;;;;;17.13;2.67;;;10.60;99.90;;;;;;5027504;28;20053;-55
2021/04/15 08:46:38;;;;;;;7.15;2.33;;;10.40;99.90;;;;;;5051821;28;20036;-58
2021/04/15 08:49:41;;;;;;;19.52;2.85;;;10.40;99.90;;;;;;5052947;28;20637;-57
2021/04/15 08:52:33;;;;;;;15.27;3.22;;;10.70;99.90;;;;;;5050563;28;20090;-58
2021/04/15 08:55:20;;;;;;;12.80;2.00;;;11.20;99.90;;;;;;5039834;28;20131;-53
2021/04/15 08:58:10;;;;;;;4.15;1.42;;;11.30;99.90;;;;;;5049841;28;20048;-58
2021/04/15 09:01:00;;;;;;;7.55;1.63;;;11.00;99.90;;;;;;5050401;28;20108;-58
2021/04/15 09:03:48;;;;;;;10.30;2.00;;;11.10;99.90;;;;;;5052505;28;20087;-56
2021/04/15 09:06:17;;;;;;;7.25;1.65;;;11.00;99.90;;;;;;5052635;28;20025;-56
2021/04/15 09:09:11;;;;;;;25.63;3.65;;;10.70;99.90;;;;;;5052625;28;20498;-55
2021/04/15 09:11:59;;;;;;;21.25;3.67;;;10.50;99.90;;;;;;5048099;28;20071;-56
2021/04/15 09:14:34;;;;;;;6.05;1.55;;;10.40;99.90;;;;;;5051984;28;20040;-58
2021/04/15 09:17:09;;;;;;;7.88;1.88;;;10.50;99.90;;;;;;5052479;28;20490;-56
2021/04/15 09:19:59;;;;;;;19.30;3.05;;;10.40;99.90;;;;;;5052650;28;20028;-53
2021/04/15 09:22:39;;;;;;;22.65;3.05;;;10.10;99.90;;;;;;5051045;28;20037;-58
2021/04/15 09:25:43;;;;;;;9.23;2.30;;;10.00;99.90;;;;;;5045838;28;20060;-58
2021/04/15 09:28:37;;;;;;;6.40;1.63;;;10.20;99.90;;;;;;5002974;28;20130;-58
2021/04/15 09:31:21;;;;;;;9.05;2.00;;;10.00;99.90;;;;;;5005624;28;20137;-56
2021/04/15 09:33:59;;;;;;;9.95;2.00;;;10.00;99.90;;;;;;5032494;28;20032;-57
2021/04/15 09:36:52;;;;;;;13.55;2.30;;;10.20;99.90;;;;;;5051952;28;20102;-57
2021/04/15 09:39:30;;;;;;;6.53;1.58;;;10.30;99.90;;;;;;5052055;28;20131;-56
2021/04/15 09:42:33;;;;;;;5.65;1.77;;;10.40;99.90;;;;;;5051797;28;20068;-56
2021/04/15 09:45:20;;;;;;;5.43;1.90;;;10.60;99.90;;;;;;5047623;28;20039;-57
2021/04/15 09:48:15;;;;;;;6.50;1.80;;;10.50;99.90;;;;;;5051481;28;20051;-56
2021/04/15 09:50:49;;;;;;;13.82;2.60;;;10.20;99.90;;;;;;5037739;28;20056;-55
2021/04/15 09:53:51;;;;;;;13.02;2.38;;;10.70;99.90;;;;;;5050795;28;20390;-52
2021/04/15 09:56:28;;;;;;;8.18;1.73;;;10.80;99.90;;;;;;5049342;28;20114;-56
2021/04/15 09:59:14;;;;;;;7.03;1.80;;;11.10;99.90;;;;;;5051294;28;20040;-55
2021/04/15 10:02:00;;;;;;;13.05;2.17;;;11.10;99.90;;;;;;5049606;28;20037;-56
2021/04/15 10:04:36;;;;;;;7.80;1.63;;;11.10;99.90;;;;;;5050183;28;20044;-56
2021/04/15 10:07:14;;;;;;;9.95;2.55;;;10.80;99.90;;;;;;5047607;28;20487;-56
2021/04/15 10:09:46;;;;;;;12.45;2.22;;;10.50;99.90;;;;;;5051960;28;20025;-56
2021/04/15 10:12:17;;;;;;;7.53;1.50;;;10.80;99.90;;;;;;5050710;28;20044;-56
2021/04/15 10:15:03;;;;;;;7.47;1.60;;;10.90;99.90;;;;;;5051261;28;20032;-56
2021/04/15 10:17:31;;;;;;;;;;;11.10;99.90;;;;;;5039572;28;20134;-55
2021/04/15 10:20:21;;;;;;;34.78;4.25;;;11.50;99.90;;;;;;5050791;28;19913;-53
2021/04/15 10:23:04;;;;;;;10.70;2.05;;;11.10;99.90;;;;;;5044212;28;20025;-56
2021/04/15 10:25:52;;;;;;;9.10;1.90;;;10.80;99.90;;;;;;5054706;28;20556;-54
2021/04/15 10:28:24;;;;;;;11.27;2.55;;;10.40;99.90;;;;;;5047327;28;20596;-55
2021/04/15 10:31:19;;;;;;;4.47;1.48;;;10.00;99.90;;;;;;5051572;28;20112;-56
2021/04/15 10:34:10;;;;;;;11.60;2.30;;;9.90;99.90;;;;;;5040822;28;20121;-54
2021/04/15 10:36:53;;;;;;;6.60;1.80;;;9.90;99.90;;;;;;5050740;28;20045;-55
2021/04/15 10:39:43;;;;;;;11.98;2.20;;;10.10;99.90;;;;;;5051236;28;20071;-57
2021/04/15 10:42:36;;;;;;;10.55;1.92;;;10.10;99.90;;;;;;5047146;28;20122;-58
2021/04/15 10:45:12;;;;;;;8.65;1.95;;;10.30;99.90;;;;;;5050987;28;20033;-56
2021/04/15 10:47:45;;;;;;;8.98;1.77;;;10.40;99.90;;;;;;5051475;28;20033;-52
2021/04/15 10:50:43;;;;;;;17.85;2.60;;;10.30;99.90;;;;;;5051208;28;20426;-55
2021/04/15 10:53:33;;;;;;;4.97;1.50;;;10.30;99.90;;;;;;5050886;28;20483;-55
2021/04/15 10:56:08;;;;;;;5.38;1.60;;;10.40;99.90;;;;;;5051031;28;20056;-56
2021/04/15 10:58:48;;;;;;;10.40;1.75;;;10.40;99.90;;;;;;5051024;28;20113;-57
2021/04/15 11:01:31;;;;;;;3.33;1.45;;;10.40;99.90;;;;;;5050865;28;20044;-55
2021/04/15 11:04:22;;;;;;;11.27;1.88;;;10.40;99.90;;;;;;5051352;28;20041;-55
2021/04/15 11:06:57;;;;;;;12.25;1.48;;;10.40;99.90;;;;;;5050476;28;20036;-51
2021/04/15 11:09:25;;;;;;;;;;;10.50;99.90;;;;;;5051400;28;20069;-53
2021/04/15 11:12:13;;;;;;;4.20;1.17;;;10.40;99.90;;;;;;5050507;28;19917;-53
2021/04/15 11:14:58;;;;;;;5.00;1.00;;;10.40;99.90;;;;;;5043412;28;20190;-57
2021/04/15 11:17:36;;;;;;;3.67;0.98;;;10.60;99.90;;;;;;5048647;28;20053;-54
2021/04/15 11:20:23;;;;;;;36.63;4.90;;;10.60;99.90;;;;;;5046022;28;20552;-56
2021/04/15 11:23:05;;;;;;;8.00;1.65;;;10.80;99.90;;;;;;5050312;28;20399;-55
2021/04/15 11:25:41;;;;;;;8.73;1.40;;;11.00;99.90;;;;;;5049374;28;20048;-57
2021/04/15 11:28:30;;;;;;;5.35;1.40;;;11.30;99.90;;;;;;5050270;28;20025;-54
2021/04/15 11:30:59;;;;;;;5.13;1.30;;;11.50;99.90;;;;;;5037516;28;20041;-54
2021/04/15 11:33:42;;;;;;;7.18;1.40;;;11.40;99.90;;;;;;5049952;28;20037;-56
2021/04/15 11:36:14;;;;;;;10.88;1.45;;;11.10;99.90;;;;;;5043894;28;20063;-55
2021/04/15 11:38:42;;;;;;;6.50;1.42;;;10.80;99.90;;;;;;5050164;28;20156;-56
2021/04/15 11:41:23;;;;;;;30.50;3.55;;;10.70;99.90;;;;;;5050582;28;20075;-55
2021/04/15 11:44:01;;;;;;;9.10;1.83;;;10.70;99.90;;;;;;5050063;28;20479;-57
2021/04/15 11:46:37;;;;;;;4.63;1.30;;;10.90;99.90;;;;;;5050475;28;20093;-55
2021/04/15 11:49:12;;;;;;;6.63;1.35;;;10.80;99.90;;;;;;5050394;28;20029;-52
2021/04/15 11:51:40;;;;;;;;;;;11.10;99.90;;;;;;5049129;28;20068;-56
2021/04/15 11:54:25;;;;;;;6.18;1.30;;;11.50;99.90;;;;;;5048532;28;19908;-56
2021/04/15 11:56:50;;;;;;;9.23;1.60;;;11.50;99.90;;;;;;5048857;28;20058;-53
2021/04/15 11:59:30;;;;;;;8.60;1.42;;;11.30;99.90;;;;;;5044832;28;20276;-56
2021/04/15 12:02:16;;;;;;;4.63;0.90;;;11.40;99.90;;;;;;5047342;28;20490;-56
2021/04/15 12:04:42;;;;;;;3.78;0.98;;;11.50;99.90;;;;;;5043407;28;20112;-57
2021/04/15 12:07:23;;;;;;;7.15;1.05;;;11.60;99.90;;;;;;5049190;28;20119;-54
2021/04/15 12:09:51;;;;;;;3.10;0.85;;;11.60;99.90;;;;;;5048773;28;20179;-57
2021/04/15 12:12:36;;;;;;;4.05;1.02;;;11.70;99.90;;;;;;5049982;28;20475;-55
2021/04/15 12:15:06;;;;;;;2.40;0.88;;;11.80;99.90;;;;;;5045998;28;20114;-54
2021/04/15 12:17:51;;;;;;;5.53;1.13;;;11.70;99.90;;;;;;5049544;28;20032;-54
2021/04/15 12:20:42;;;;;;;3.05;0.90;;;11.90;99.90;;;;;;5048494;28;20432;-55
2021/04/15 12:23:18;;;;;;;6.95;1.38;;;12.10;99.90;;;;;;5044182;28;20028;-57
2021/04/15 12:26:00;;;;;;;8.88;1.20;;;12.40;99.90;;;;;;5040641;28;20944;-56
2021/04/15 12:28:39;;;;;;;5.40;1.10;;;12.40;99.90;;;;;;5045972;28;20089;-54
2021/04/15 12:31:47;;;;;;;9.10;1.50;;;12.40;99.90;;;;;;5045392;28;20041;-56
2021/04/15 12:34:17;;;;;;;5.70;1.25;;;12.40;99.90;;;;;;4993240;28;20058;-56
2021/04/15 12:37:08;;;;;;;4.20;1.05;;;12.40;99.90;;;;;;5043034;28;20052;-57
2021/04/15 12:40:00;;;;;;;4.45;1.20;;;12.30;99.90;;;;;;5051495;28;20095;-55
2021/04/15 12:42:26;;;;;;;8.93;1.17;;;12.00;99.90;;;;;;5040208;28;20123;-56
2021/04/15 12:45:00;;;;;;;4.32;1.17;;;11.90;99.90;;;;;;5052549;28;20036;-55
2021/04/15 12:47:33;;;;;;;7.32;1.70;;;11.70;99.90;;;;;;5043184;28;20025;-54
2021/04/15 12:50:00;;;;;;;9.32;2.05;;;11.50;99.90;;;;;;5053740;28;20067;-57
2021/04/15 12:52:30;;;;;;;41.42;4.00;;;11.30;99.90;;;;;;5052475;28;20051;-54
2021/04/15 12:54:58;;;;;;;6.60;1.58;;;11.10;99.90;;;;;;5052951;28;20079;-55
2021/04/15 12:57:25;;;;;;;17.30;2.00;;;10.90;99.90;;;;;;5052892;28;20033;-54
2021/04/15 12:59:53;;;;;;;15.27;1.98;;;11.00;99.90;;;;;;5052941;28;20029;-56
2021/04/15 13:02:22;;;;;;;3.33;1.40;;;11.20;99.90;;;;;;5051983;28;20029;-57
2021/04/15 13:04:56;;;;;;;9.15;1.65;;;11.50;99.90;;;;;;5049630;28;20498;-54
2021/04/15 13:07:22;;;;;;;8.73;1.30;;;11.50;99.90;;;;;;5051206;28;20025;-55
2021/04/15 13:09:51;;;;;;;3.67;1.20;;;11.60;99.90;;;;;;5043242;28;20606;-54
2021/04/15 13:12:19;;;;;;;8.02;1.60;;;11.70;99.90;;;;;;5052916;28;20041;-54
2021/04/15 13:14:51;;;;;;;6.93;1.88;;;11.80;99.90;;;;;;5052649;28;20042;-55
2021/04/15 13:17:35;;;;;;;2.38;1.10;;;11.70;99.90;;;;;;5052332;28;20025;-54
2021/04/15 13:20:12;;;;;;;6.47;0.77;;;11.30;99.90;;;;;;5042889;28;20091;-54
2021/04/15 13:22:42;;;;;;;8.70;1.00;;;11.00;99.90;;;;;;5044811;28;20064;-53
2021/04/15 13:25:12;;;;;;;11.57;1.45;;;10.90;99.90;;;;;;5047028;28;20060;-53
2021/04/15 13:27:38;;;;;;;2.50;0.80;;;11.20;99.90;;;;;;5045473;28;20072;-54
2021/04/15 13:30:33;;;;;;;4.75;0.90;;;11.20;99.90;;;;;;5033558;28;20092;-57
2021/04/15 13:33:10;;;;;;;6.28;1.20;;;11.30;99.90;;;;;;5051155;28;20112;-57
2021/04/15 13:35:44;;;;;;;4.18;1.17;;;11.40;99.90;;;;;;5049862;28;20067;-56
2021/04/15 13:38:32;;;;;;;8.40;1.40;;;11.40;99.90;;;;;;5049281;28;20030;-58
2021/04/15 13:41:26;;;;;;;5.15;1.00;;;11.20;99.90;;;;;;5051727;28;20108;-55
2021/04/15 13:43:58;;;;;;;9.93;1.40;;;11.00;99.90;;;;;;5033567;28;20049;-56
2021/04/15 13:48:51;;;;;;;15.05;2.40;;;10.50;99.90;;;;;;5052137;28;20171;-55
2021/04/15 13:51:23;;;;;;;5.22;1.75;;;10.30;99.90;;;;;;5052268;28;20116;-57
2021/04/15 13:53:52;;;;;;;11.45;1.92;;;10.20;99.90;;;;;;5044438;28;20108;-56